ADDS METAR Data INFO
IDs: Format: Raw Decoded Include TAF

Data at: 0638 UTC 21 Jan 2018

KBKW 210622Z AUTO 00000KT 10SM SCT014 OVC022 06/02 A3018 RMK AO2 T00610022 TSNO
KBKW 210606Z AUTO 00000KT 10SM BKN014 OVC019 06/02 A3019 RMK AO2 T00610022 TSNO
KBKW 210551Z AUTO 22003KT 10SM OVC015 07/02 A3019 RMK AO2 SLP229 T00670022 10072 20050 53002 TSNO
KBKW 210451Z AUTO 21004KT 10SM OVC017 07/02 A3018 RMK AO2 SLP228 T00670022 400941022 TSNO
KBKW 210351Z AUTO 25005KT 10SM BKN020 OVC043 07/02 A3019 RMK AO2 SLP233 T00670017 TSNO
KBKW 210341Z AUTO 26004KT 10SM BKN021 OVC043 06/01 A3019 RMK AO2 T00610011 TSNO
KBKW 210310Z AUTO 25006KT 10SM SCT023 SCT029 OVC040 07/02 A3018 RMK AO2 T00670017 TSNO
KBKW 210251Z AUTO 24006KT 10SM OVC025 07/02 A3018 RMK AO2 SLP233 T00720017 53009 TSNO
KBKW 210151Z AUTO 22006KT 10SM OVC021 07/02 A3017 RMK AO2 SLP228 T00720017 TSNO
KBKW 210051Z AUTO 23005KT 10SM BKN023 07/02 A3016 RMK AO2 SLP231 T00670017 TSNO
KBKW 210044Z AUTO 23007KT 10SM BKN023 06/01 A3016 RMK AO2 T00610011 TSNO
KBKW 202351Z AUTO 22004KT 10SM CLR 05/01 A3015 RMK AO2 SLP227 T00500006 10094 20044 51009 TSNO
KBKW 202251Z AUTO 24006KT 10SM SCT031 07/01 A3014 RMK AO2 SLP223 T00720011 TSNO
KBKW 202227Z AUTO 26006KT 10SM OVC030 08/02 A3014 RMK AO2 T00780017 TSNO
KBKW 202151Z AUTO 26007KT 10SM OVC027 08/02 A3013 RMK AO2 SLP220 T00780017 TSNO
KBKW 202051Z AUTO 26014G19KT 10SM OVC027 08/02 A3012 RMK AO2 SLP214 T00830017 55002 TSNO
KBKW 201951Z AUTO 24010KT 10SM BKN025 09/02 A3010 RMK AO2 SLP208 T00890017 TSNO
KBKW 201851Z AUTO 26016G21KT 10SM OVC027 09/02 A3010 RMK AO2 SLP208 T00890017 TSNO
KBKW 201811Z AUTO 28013G25KT 10SM BKN025 07/01 A3012 RMK AO2 T00720006 TSNO
KBKW 201751Z AUTO 26015G27KT 10SM CLR 08/01 A3013 RMK AO2 PK WND 28027/1748 SLP221 T00780006 10083 20011 58013 TSNO
KBKW 201651Z AUTO 25014G17KT 10SM FEW023 07/M01 A3015 RMK AO2 SLP227 T00671006 TSNO
KBKW 201609Z AUTO 26014G19KT 10SM FEW023 06/M01 A3016 RMK AO2 T00561011 TSNO
KBKW 201551Z AUTO 25011KT 10SM BKN023 04/M01 A3017 RMK AO2 SLP237 T00441011 TSNO
KBKW 201451Z AUTO 24009KT 10SM OVC022 03/M02 A3017 RMK AO2 SLP239 T00281022 53008 TSNO
KBKW 201351Z AUTO 25007KT 10SM OVC025 02/M04 A3016 RMK AO2 SLP235 T00221039 TSNO
KBKW 201251Z AUTO 24006KT 10SM OVC024 01/M05 A3015 RMK AO2 SLP235 T00111050 TSNO
KBKW 201151Z AUTO 23008KT 10SM OVC022 01/M07 A3014 RMK AO2 SLP230 T00111067 10011 21022 51006 TSNO
KBKW 201051Z AUTO 25006KT 10SM OVC020 01/M09 A3014 RMK AO2 SLP230 T00061094 TSNO
KBKW 200951Z AUTO 23005KT 10SM OVC020 00/M12 A3013 RMK AO2 SLP225 T00001117 TSNO
KBKW 200851Z AUTO 23007KT 10SM OVC020 00/M13 A3012 RMK AO2 SLP219 T00001128 53010 TSNO
KBKW 200804Z AUTO 26003KT 10SM BKN021 M01/M14 A3012 RMK AO2 T10111144 TSNO
KBKW 200751Z AUTO 25004KT 10SM FEW020 M01/M15 A3011 RMK AO2 SLP219 T10111150 TSNO
KBKW 200651Z AUTO 26003KT 10SM CLR M01/M16 A3010 RMK AO2 SLP216 T10061161 TSNO